sensor_id;sensor_type;location;lat;lon;timestamp;temperature;humidity
10057;DHT22;5068;51.286;7.518;2022-11-02T00:00:11;8.80;64.50
10057;DHT22;5068;51.286;7.518;2022-11-02T00:01:45;8.80;64.60
10057;DHT22;5068;51.286;7.518;2022-11-02T00:03:19;8.80;64.50
10057;DHT22;5068;51.286;7.518;2022-11-02T00:04:52;8.90;64.60
10057;DHT22;5068;51.286;7.518;2022-11-02T00:06:25;8.90;64.70
10057;DHT22;5068;51.286;7.518;2022-11-02T00:08:00;8.90;64.60
10057;DHT22;5068;51.286;7.518;2022-11-02T00:09:33;9.00;64.70
10057;DHT22;5068;51.286;7.518;2022-11-02T00:11:06;9.00;64.80
10057;DHT22;5068;51.286;7.518;2022-11-02T00:12:39;9.00;64.70
10057;DHT22;5068;51.286;7.518;2022-11-02T00:14:13;9.00;64.70
10057;DHT22;5068;51.286;7.518;2022-11-02T00:15:45;9.00;64.50
10057;DHT22;5068;51.286;7.518;2022-11-02T00:17:18;9.00;64.50
10057;DHT22;5068;51.286;7.518;2022-11-02T00:18:53;9.10;64.30
10057;DHT22;5068;51.286;7.518;2022-11-02T00:20:30;9.10;64.20
10057;DHT22;5068;51.286;7.518;2022-11-02T00:22:04;9.20;64.20
10057;DHT22;5068;51.286;7.518;2022-11-02T00:23:39;9.20;64.30
10057;DHT22;5068;51.286;7.518;2022-11-02T00:25:14;9.30;64.40
10057;DHT22;5068;51.286;7.518;2022-11-02T00:26:49;9.30;64.40
10057;DHT22;5068;51.286;7.518;2022-11-02T00:28:22;9.30;64.30
10057;DHT22;5068;51.286;7.518;2022-11-02T00:29:55;9.40;64.40
10057;DHT22;5068;51.286;7.518;2022-11-02T00:31:28;9.40;64.20
10057;DHT22;5068;51.286;7.518;2022-11-02T00:33:02;9.50;64.10
10057;DHT22;5068;51.286;7.518;2022-11-02T00:34:35;9.50;63.90
10057;DHT22;5068;51.286;7.518;2022-11-02T00:36:08;9.50;63.70
10057;DHT22;5068;51.286;7.518;2022-11-02T00:37:41;9.60;63.60
10057;DHT22;5068;51.286;7.518;2022-11-02T00:39:16;9.60;63.30
10057;DHT22;5068;51.286;7.518;2022-11-02T00:40:49;9.60;63.20
10057;DHT22;5068;51.286;7.518;2022-11-02T00:42:22;9.60;63.20
10057;DHT22;5068;51.286;7.518;2022-11-02T00:43:56;9.70;63.30
10057;DHT22;5068;51.286;7.518;2022-11-02T00:45:30;9.70;63.20
10057;DHT22;5068;51.286;7.518;2022-11-02T00:47:04;9.80;63.10
10057;DHT22;5068;51.286;7.518;2022-11-02T00:48:37;9.80;63.00
10057;DHT22;5068;51.286;7.518;2022-11-02T00:50:11;9.80;62.80
10057;DHT22;5068;51.286;7.518;2022-11-02T00:51:44;9.80;62.70
10057;DHT22;5068;51.286;7.518;2022-11-02T00:53:19;9.90;63.00
10057;DHT22;5068;51.286;7.518;2022-11-02T00:54:57;9.90;63.20
10057;DHT22;5068;51.286;7.518;2022-11-02T00:56:30;9.90;63.00
10057;DHT22;5068;51.286;7.518;2022-11-02T00:58:06;10.00;62.80
10057;DHT22;5068;51.286;7.518;2022-11-02T00:59:40;10.00;62.70
10057;DHT22;5068;51.286;7.518;2022-11-02T01:01:13;10.10;62.80
10057;DHT22;5068;51.286;7.518;2022-11-02T01:02:46;10.00;62.70
10057;DHT22;5068;51.286;7.518;2022-11-02T01:04:20;10.10;63.70
10057;DHT22;5068;51.286;7.518;2022-11-02T01:05:53;10.20;62.90
10057;DHT22;5068;51.286;7.518;2022-11-02T01:07:27;10.10;62.80
10057;DHT22;5068;51.286;7.518;2022-11-02T01:09:00;10.20;62.90
10057;DHT22;5068;51.286;7.518;2022-11-02T01:10:35;10.20;62.90
10057;DHT22;5068;51.286;7.518;2022-11-02T01:12:08;10.20;62.90
10057;DHT22;5068;51.286;7.518;2022-11-02T01:13:41;10.20;62.90
10057;DHT22;5068;51.286;7.518;2022-11-02T01:15:16;10.30;62.70
10057;DHT22;5068;51.286;7.518;2022-11-02T01:16:49;10.30;62.90
10057;DHT22;5068;51.286;7.518;2022-11-02T01:18:22;10.30;62.30
10057;DHT22;5068;51.286;7.518;2022-11-02T01:19:55;10.30;62.20
10057;DHT22;5068;51.286;7.518;2022-11-02T01:21:28;10.30;62.00
10057;DHT22;5068;51.286;7.518;2022-11-02T01:23:02;10.30;61.90
10057;DHT22;5068;51.286;7.518;2022-11-02T01:24:35;10.30;61.90
10057;DHT22;5068;51.286;7.518;2022-11-02T01:26:10;10.30;61.70
10057;DHT22;5068;51.286;7.518;2022-11-02T01:27:44;10.40;61.70
10057;DHT22;5068;51.286;7.518;2022-11-02T01:29:18;10.40;61.60
10057;DHT22;5068;51.286;7.518;2022-11-02T01:30:51;10.40;61.60
10057;DHT22;5068;51.286;7.518;2022-11-02T01:32:25;10.40;61.50
10057;DHT22;5068;51.286;7.518;2022-11-02T01:34:00;10.40;61.40
10057;DHT22;5068;51.286;7.518;2022-11-02T01:35:35;10.40;61.30
10057;DHT22;5068;51.286;7.518;2022-11-02T01:37:09;10.40;61.30
10057;DHT22;5068;51.286;7.518;2022-11-02T01:38:42;10.40;61.20
10057;DHT22;5068;51.286;7.518;2022-11-02T01:40:16;10.40;61.20
10057;DHT22;5068;51.286;7.518;2022-11-02T01:41:52;10.40;61.20
10057;DHT22;5068;51.286;7.518;2022-11-02T01:43:29;10.40;61.10
10057;DHT22;5068;51.286;7.518;2022-11-02T01:45:04;10.50;61.20
10057;DHT22;5068;51.286;7.518;2022-11-02T01:46:42;10.50;61.10
10057;DHT22;5068;51.286;7.518;2022-11-02T01:48:19;10.50;61.10
10057;DHT22;5068;51.286;7.518;2022-11-02T01:50:00;10.50;61.10
10057;DHT22;5068;51.286;7.518;2022-11-02T01:51:40;10.50;61.00
10057;DHT22;5068;51.286;7.518;2022-11-02T01:53:17;10.50;60.80
10057;DHT22;5068;51.286;7.518;2022-11-02T01:54:55;10.50;60.90
10057;DHT22;5068;51.286;7.518;2022-11-02T01:56:34;10.60;60.80
10057;DHT22;5068;51.286;7.518;2022-11-02T01:58:11;10.60;60.70
10057;DHT22;5068;51.286;7.518;2022-11-02T01:59:48;10.60;60.70
10057;DHT22;5068;51.286;7.518;2022-11-02T02:01:25;10.60;60.70
10057;DHT22;5068;51.286;7.518;2022-11-02T02:03:03;10.60;60.60
10057;DHT22;5068;51.286;7.518;2022-11-02T02:04:42;10.60;60.60
10057;DHT22;5068;51.286;7.518;2022-11-02T02:06:16;10.60;60.50
10057;DHT22;5068;51.286;7.518;2022-11-02T02:07:50;10.60;60.50
10057;DHT22;5068;51.286;7.518;2022-11-02T02:09:25;10.70;60.70
10057;DHT22;5068;51.286;7.518;2022-11-02T02:11:00;10.70;60.60
10057;DHT22;5068;51.286;7.518;2022-11-02T02:12:37;10.70;60.70
10057;DHT22;5068;51.286;7.518;2022-11-02T02:14:16;10.70;60.70
10057;DHT22;5068;51.286;7.518;2022-11-02T02:16:01;10.70;60.60
10057;DHT22;5068;51.286;7.518;2022-11-02T02:17:46;10.70;60.70
10057;DHT22;5068;51.286;7.518;2022-11-02T02:19:29;10.70;60.50
10057;DHT22;5068;51.286;7.518;2022-11-02T02:21:20;10.70;60.30
10057;DHT22;5068;51.286;7.518;2022-11-02T02:23:18;10.80;60.70
10057;DHT22;5068;51.286;7.518;2022-11-02T02:25:27;10.90;60.60
10057;DHT22;5068;51.286;7.518;2022-11-02T02:27:20;10.80;60.40
10057;DHT22;5068;51.286;7.518;2022-11-02T02:29:01;10.80;60.40
10057;DHT22;5068;51.286;7.518;2022-11-02T02:30:45;10.90;60.50
10057;DHT22;5068;51.286;7.518;2022-11-02T02:32:26;10.90;60.50
10057;DHT22;5068;51.286;7.518;2022-11-02T02:34:13;10.90;60.50
10057;DHT22;5068;51.286;7.518;2022-11-02T02:35:54;10.90;61.40
10057;DHT22;5068;51.286;7.518;2022-11-02T02:37:35;11.00;60.40
10057;DHT22;5068;51.286;7.518;2022-11-02T02:39:16;10.90;60.10
10057;DHT22;5068;51.286;7.518;2022-11-02T02:40:57;10.90;60.10
10057;DHT22;5068;51.286;7.518;2022-11-02T02:42:40;11.00;60.20
10057;DHT22;5068;51.286;7.518;2022-11-02T02:44:22;11.00;60.10
10057;DHT22;5068;51.286;7.518;2022-11-02T02:46:05;11.00;60.00
10057;DHT22;5068;51.286;7.518;2022-11-02T02:47:44;11.00;59.90
10057;DHT22;5068;51.286;7.518;2022-11-02T02:49:25;11.00;59.90
10057;DHT22;5068;51.286;7.518;2022-11-02T02:51:05;11.00;59.90
10057;DHT22;5068;51.286;7.518;2022-11-02T02:52:43;11.00;59.70
10057;DHT22;5068;51.286;7.518;2022-11-02T02:54:22;11.00;59.70
10057;DHT22;5068;51.286;7.518;2022-11-02T02:56:01;11.00;59.70
10057;DHT22;5068;51.286;7.518;2022-11-02T02:57:36;11.10;59.90
10057;DHT22;5068;51.286;7.518;2022-11-02T02:59:15;11.10;59.80
10057;DHT22;5068;51.286;7.518;2022-11-02T03:00:59;11.10;59.80
10057;DHT22;5068;51.286;7.518;2022-11-02T03:02:36;11.10;59.80
10057;DHT22;5068;51.286;7.518;2022-11-02T03:04:12;11.10;59.70
10057;DHT22;5068;51.286;7.518;2022-11-02T03:06:00;11.10;59.60
10057;DHT22;5068;51.286;7.518;2022-11-02T03:07:39;11.10;59.60
10057;DHT22;5068;51.286;7.518;2022-11-02T03:09:19;11.10;59.60
10057;DHT22;5068;51.286;7.518;2022-11-02T03:11:11;11.10;59.60
10057;DHT22;5068;51.286;7.518;2022-11-02T03:12:53;11.10;59.50
10057;DHT22;5068;51.286;7.518;2022-11-02T03:14:38;11.10;59.50
10057;DHT22;5068;51.286;7.518;2022-11-02T03:16:37;11.10;59.40
10057;DHT22;5068;51.286;7.518;2022-11-02T03:18:29;11.10;59.50
10057;DHT22;5068;51.286;7.518;2022-11-02T03:20:14;11.10;59.40
10057;DHT22;5068;51.286;7.518;2022-11-02T03:21:58;11.10;59.50
10057;DHT22;5068;51.286;7.518;2022-11-02T03:23:38;11.10;59.40
10057;DHT22;5068;51.286;7.518;2022-11-02T03:25:18;11.10;59.40
10057;DHT22;5068;51.286;7.518;2022-11-02T03:27:06;11.10;59.40
10057;DHT22;5068;51.286;7.518;2022-11-02T03:28:55;11.10;59.40
10057;DHT22;5068;51.286;7.518;2022-11-02T03:30:36;11.10;59.40
10057;DHT22;5068;51.286;7.518;2022-11-02T03:32:21;11.10;59.40
10057;DHT22;5068;51.286;7.518;2022-11-02T03:34:01;11.10;59.40
10057;DHT22;5068;51.286;7.518;2022-11-02T03:35:52;11.10;59.40
10057;DHT22;5068;51.286;7.518;2022-11-02T03:37:36;11.10;59.40
10057;DHT22;5068;51.286;7.518;2022-11-02T03:39:16;11.10;59.50
10057;DHT22;5068;51.286;7.518;2022-11-02T03:40:54;11.10;59.40
10057;DHT22;5068;51.286;7.518;2022-11-02T03:42:31;11.10;59.40
10057;DHT22;5068;51.286;7.518;2022-11-02T03:44:09;11.00;59.30
10057;DHT22;5068;51.286;7.518;2022-11-02T03:45:49;11.00;59.40
10057;DHT22;5068;51.286;7.518;2022-11-02T03:47:29;11.00;59.40
10057;DHT22;5068;51.286;7.518;2022-11-02T03:49:11;11.00;59.40
10057;DHT22;5068;51.286;7.518;2022-11-02T03:50:51;11.00;59.40
10057;DHT22;5068;51.286;7.518;2022-11-02T03:52:29;11.00;59.40
10057;DHT22;5068;51.286;7.518;2022-11-02T03:54:07;11.00;59.40
10057;DHT22;5068;51.286;7.518;2022-11-02T03:55:49;11.00;59.40
10057;DHT22;5068;51.286;7.518;2022-11-02T03:57:29;11.00;59.40
10057;DHT22;5068;51.286;7.518;2022-11-02T03:59:06;11.00;59.30
10057;DHT22;5068;51.286;7.518;2022-11-02T04:00:46;11.00;59.30
10057;DHT22;5068;51.286;7.518;2022-11-02T04:02:24;11.00;59.30
10057;DHT22;5068;51.286;7.518;2022-11-02T04:03:59;11.00;59.30
10057;DHT22;5068;51.286;7.518;2022-11-02T04:05:35;11.00;59.30
10057;DHT22;5068;51.286;7.518;2022-11-02T04:07:19;11.00;59.40
10057;DHT22;5068;51.286;7.518;2022-11-02T04:08:57;11.00;59.40
10057;DHT22;5068;51.286;7.518;2022-11-02T04:10:31;11.00;59.40
10057;DHT22;5068;51.286;7.518;2022-11-02T04:12:05;11.00;59.40
10057;DHT22;5068;51.286;7.518;2022-11-02T04:13:56;11.00;59.40
10057;DHT22;5068;51.286;7.518;2022-11-02T04:15:50;11.00;59.40
10057;DHT22;5068;51.286;7.518;2022-11-02T04:17:23;11.00;59.50
10057;DHT22;5068;51.286;7.518;2022-11-02T04:19:19;11.00;59.50
10057;DHT22;5068;51.286;7.518;2022-11-02T04:21:05;11.00;59.40
10057;DHT22;5068;51.286;7.518;2022-11-02T04:22:38;11.00;59.40
10057;DHT22;5068;51.286;7.518;2022-11-02T04:24:30;11.00;59.40
10057;DHT22;5068;51.286;7.518;2022-11-02T04:26:22;11.00;60.10
10057;DHT22;5068;51.286;7.518;2022-11-02T04:28:06;11.00;59.40
10057;DHT22;5068;51.286;7.518;2022-11-02T04:29:47;10.90;59.40
10057;DHT22;5068;51.286;7.518;2022-11-02T04:31:21;10.90;59.40
10057;DHT22;5068;51.286;7.518;2022-11-02T04:32:54;10.90;59.90
10057;DHT22;5068;51.286;7.518;2022-11-02T04:34:54;10.90;59.40
10057;DHT22;5068;51.286;7.518;2022-11-02T04:36:28;10.90;59.30
10057;DHT22;5068;51.286;7.518;2022-11-02T04:38:02;10.90;59.40
10057;DHT22;5068;51.286;7.518;2022-11-02T04:39:54;10.90;59.40
10057;DHT22;5068;51.286;7.518;2022-11-02T04:41:26;10.90;59.30
10057;DHT22;5068;51.286;7.518;2022-11-02T04:43:29;10.90;59.30
10057;DHT22;5068;51.286;7.518;2022-11-02T04:45:02;10.90;59.20
10057;DHT22;5068;51.286;7.518;2022-11-02T04:46:37;10.90;59.20
10057;DHT22;5068;51.286;7.518;2022-11-02T04:48:12;10.90;59.20
10057;DHT22;5068;51.286;7.518;2022-11-02T04:49:46;10.90;59.20
10057;DHT22;5068;51.286;7.518;2022-11-02T04:51:25;10.90;59.10
10057;DHT22;5068;51.286;7.518;2022-11-02T04:53:01;10.90;59.20
10057;DHT22;5068;51.286;7.518;2022-11-02T04:54:36;10.80;59.10
10057;DHT22;5068;51.286;7.518;2022-11-02T04:56:10;10.80;59.10
10057;DHT22;5068;51.286;7.518;2022-11-02T04:57:44;10.80;59.10
10057;DHT22;5068;51.286;7.518;2022-11-02T04:59:17;10.80;59.20
10057;DHT22;5068;51.286;7.518;2022-11-02T05:00:51;10.80;59.20
10057;DHT22;5068;51.286;7.518;2022-11-02T05:02:23;10.80;59.20
10057;DHT22;5068;51.286;7.518;2022-11-02T05:03:56;10.80;59.30
10057;DHT22;5068;51.286;7.518;2022-11-02T05:05:32;10.80;59.30
10057;DHT22;5068;51.286;7.518;2022-11-02T05:07:07;10.80;59.40
10057;DHT22;5068;51.286;7.518;2022-11-02T05:08:43;10.80;59.50
10057;DHT22;5068;51.286;7.518;2022-11-02T05:10:16;10.80;59.50
10057;DHT22;5068;51.286;7.518;2022-11-02T05:11:51;10.80;59.50
10057;DHT22;5068;51.286;7.518;2022-11-02T05:13:24;10.70;59.50
10057;DHT22;5068;51.286;7.518;2022-11-02T05:15:01;10.70;59.60
10057;DHT22;5068;51.286;7.518;2022-11-02T05:16:35;10.70;59.70
10057;DHT22;5068;51.286;7.518;2022-11-02T05:18:08;10.70;59.70
10057;DHT22;5068;51.286;7.518;2022-11-02T05:19:46;10.70;59.80
10057;DHT22;5068;51.286;7.518;2022-11-02T05:21:21;10.70;59.90
10057;DHT22;5068;51.286;7.518;2022-11-02T05:22:58;10.70;59.90
10057;DHT22;5068;51.286;7.518;2022-11-02T05:24:32;10.70;60.00
10057;DHT22;5068;51.286;7.518;2022-11-02T05:26:08;10.60;59.90
10057;DHT22;5068;51.286;7.518;2022-11-02T05:27:46;10.70;60.30
10057;DHT22;5068;51.286;7.518;2022-11-02T05:29:19;10.70;59.90
10057;DHT22;5068;51.286;7.518;2022-11-02T05:30:54;10.70;59.90
10057;DHT22;5068;51.286;7.518;2022-11-02T05:32:31;10.70;60.00
10057;DHT22;5068;51.286;7.518;2022-11-02T05:34:05;10.70;60.10
10057;DHT22;5068;51.286;7.518;2022-11-02T05:35:39;10.60;60.10
10057;DHT22;5068;51.286;7.518;2022-11-02T05:37:12;10.70;60.30
10057;DHT22;5068;51.286;7.518;2022-11-02T05:38:46;10.70;60.20
10057;DHT22;5068;51.286;7.518;2022-11-02T05:40:19;10.60;60.20
10057;DHT22;5068;51.286;7.518;2022-11-02T05:41:53;10.70;60.30
10057;DHT22;5068;51.286;7.518;2022-11-02T05:43:26;10.70;60.30
10057;DHT22;5068;51.286;7.518;2022-11-02T05:45:01;10.70;60.30
10057;DHT22;5068;51.286;7.518;2022-11-02T05:46:34;10.70;60.30
10057;DHT22;5068;51.286;7.518;2022-11-02T05:48:08;10.60;60.20
10057;DHT22;5068;51.286;7.518;2022-11-02T05:49:40;10.70;60.30
10057;DHT22;5068;51.286;7.518;2022-11-02T05:51:14;10.70;60.20
10057;DHT22;5068;51.286;7.518;2022-11-02T05:52:47;10.70;60.00
10057;DHT22;5068;51.286;7.518;2022-11-02T05:54:21;10.70;60.00
10057;DHT22;5068;51.286;7.518;2022-11-02T05:55:56;10.60;59.80
10057;DHT22;5068;51.286;7.518;2022-11-02T05:57:31;10.70;59.90
10057;DHT22;5068;51.286;7.518;2022-11-02T05:59:04;10.70;59.70
10057;DHT22;5068;51.286;7.518;2022-11-02T06:00:38;10.70;59.80
10057;DHT22;5068;51.286;7.518;2022-11-02T06:02:11;10.70;59.70
10057;DHT22;5068;51.286;7.518;2022-11-02T06:03:44;10.70;59.70
10057;DHT22;5068;51.286;7.518;2022-11-02T06:05:24;10.80;59.70
10057;DHT22;5068;51.286;7.518;2022-11-02T06:06:58;10.70;59.70
10057;DHT22;5068;51.286;7.518;2022-11-02T06:08:31;10.80;59.70
10057;DHT22;5068;51.286;7.518;2022-11-02T06:10:07;10.80;59.60
10057;DHT22;5068;51.286;7.518;2022-11-02T06:11:41;10.80;59.50
10057;DHT22;5068;51.286;7.518;2022-11-02T06:13:15;10.80;59.50
10057;DHT22;5068;51.286;7.518;2022-11-02T06:14:47;10.80;59.40
10057;DHT22;5068;51.286;7.518;2022-11-02T06:16:21;10.80;59.40
10057;DHT22;5068;51.286;7.518;2022-11-02T06:17:54;10.80;59.30
10057;DHT22;5068;51.286;7.518;2022-11-02T06:19:27;10.80;59.30
10057;DHT22;5068;51.286;7.518;2022-11-02T06:21:01;10.80;59.20
10057;DHT22;5068;51.286;7.518;2022-11-02T06:22:38;10.90;59.30
10057;DHT22;5068;51.286;7.518;2022-11-02T06:24:12;10.90;60.00
10057;DHT22;5068;51.286;7.518;2022-11-02T06:25:51;10.90;59.30
10057;DHT22;5068;51.286;7.518;2022-11-02T06:27:24;10.90;59.20
10057;DHT22;5068;51.286;7.518;2022-11-02T06:28:58;10.90;59.20
10057;DHT22;5068;51.286;7.518;2022-11-02T06:30:31;10.90;59.10
10057;DHT22;5068;51.286;7.518;2022-11-02T06:32:05;10.90;59.00
10057;DHT22;5068;51.286;7.518;2022-11-02T06:33:38;11.00;59.00
10057;DHT22;5068;51.286;7.518;2022-11-02T06:35:12;11.00;59.00
10057;DHT22;5068;51.286;7.518;2022-11-02T06:36:46;11.00;58.90
10057;DHT22;5068;51.286;7.518;2022-11-02T06:38:19;11.00;58.90
10057;DHT22;5068;51.286;7.518;2022-11-02T06:39:53;11.00;58.90
10057;DHT22;5068;51.286;7.518;2022-11-02T06:41:27;11.10;59.00
10057;DHT22;5068;51.286;7.518;2022-11-02T06:43:00;11.00;58.90
10057;DHT22;5068;51.286;7.518;2022-11-02T06:44:47;11.00;58.90
10057;DHT22;5068;51.286;7.518;2022-11-02T06:46:20;11.10;58.90
10057;DHT22;5068;51.286;7.518;2022-11-02T06:47:54;11.10;58.80
10057;DHT22;5068;51.286;7.518;2022-11-02T06:49:27;11.10;58.80
10057;DHT22;5068;51.286;7.518;2022-11-02T06:51:01;11.10;58.80
10057;DHT22;5068;51.286;7.518;2022-11-02T06:52:34;11.10;58.60
10057;DHT22;5068;51.286;7.518;2022-11-02T06:54:07;11.10;58.40
10057;DHT22;5068;51.286;7.518;2022-11-02T06:55:40;11.20;58.30
10057;DHT22;5068;51.286;7.518;2022-11-02T06:57:15;11.20;58.30
10057;DHT22;5068;51.286;7.518;2022-11-02T06:58:48;11.20;58.30
10057;DHT22;5068;51.286;7.518;2022-11-02T07:00:21;11.20;58.30
10057;DHT22;5068;51.286;7.518;2022-11-02T07:01:55;11.20;58.30
10057;DHT22;5068;51.286;7.518;2022-11-02T07:03:29;11.20;58.00
10057;DHT22;5068;51.286;7.518;2022-11-02T07:05:03;11.20;57.90
10057;DHT22;5068;51.286;7.518;2022-11-02T07:06:37;11.20;57.90
10057;DHT22;5068;51.286;7.518;2022-11-02T07:08:10;11.20;57.90
10057;DHT22;5068;51.286;7.518;2022-11-02T07:09:43;11.20;57.80
10057;DHT22;5068;51.286;7.518;2022-11-02T07:11:16;11.20;57.80
10057;DHT22;5068;51.286;7.518;2022-11-02T07:12:52;11.30;57.90
10057;DHT22;5068;51.286;7.518;2022-11-02T07:14:26;11.30;57.80
10057;DHT22;5068;51.286;7.518;2022-11-02T07:16:00;11.30;57.80
10057;DHT22;5068;51.286;7.518;2022-11-02T07:17:33;11.30;57.80
10057;DHT22;5068;51.286;7.518;2022-11-02T07:19:06;11.20;57.80
10057;DHT22;5068;51.286;7.518;2022-11-02T07:20:39;11.30;57.80
10057;DHT22;5068;51.286;7.518;2022-11-02T07:22:13;11.30;57.70
10057;DHT22;5068;51.286;7.518;2022-11-02T07:23:46;11.30;57.70
10057;DHT22;5068;51.286;7.518;2022-11-02T07:25:21;11.30;57.70
10057;DHT22;5068;51.286;7.518;2022-11-02T07:26:56;11.30;57.70
10057;DHT22;5068;51.286;7.518;2022-11-02T07:28:30;11.30;57.50
10057;DHT22;5068;51.286;7.518;2022-11-02T07:30:05;11.40;57.50
10057;DHT22;5068;51.286;7.518;2022-11-02T07:31:39;11.30;57.40
10057;DHT22;5068;51.286;7.518;2022-11-02T07:33:12;11.40;57.50
10057;DHT22;5068;51.286;7.518;2022-11-02T07:34:45;11.40;57.40
10057;DHT22;5068;51.286;7.518;2022-11-02T07:36:18;11.40;57.40
10057;DHT22;5068;51.286;7.518;2022-11-02T07:37:56;11.40;57.40
10057;DHT22;5068;51.286;7.518;2022-11-02T07:39:30;11.40;57.40
10057;DHT22;5068;51.286;7.518;2022-11-02T07:41:03;11.40;57.40
10057;DHT22;5068;51.286;7.518;2022-11-02T07:42:42;11.40;57.40
10057;DHT22;5068;51.286;7.518;2022-11-02T07:44:22;11.40;57.20
10057;DHT22;5068;51.286;7.518;2022-11-02T07:46:01;11.40;57.10
10057;DHT22;5068;51.286;7.518;2022-11-02T07:47:40;11.40;57.00
10057;DHT22;5068;51.286;7.518;2022-11-02T07:49:14;11.40;56.80
10057;DHT22;5068;51.286;7.518;2022-11-02T07:50:52;11.40;56.80
10057;DHT22;5068;51.286;7.518;2022-11-02T07:52:25;11.40;56.80
10057;DHT22;5068;51.286;7.518;2022-11-02T07:53:59;11.40;56.80
10057;DHT22;5068;51.286;7.518;2022-11-02T07:55:33;11.40;56.70
10057;DHT22;5068;51.286;7.518;2022-11-02T07:57:07;11.40;56.70
10057;DHT22;5068;51.286;7.518;2022-11-02T07:58:40;11.50;56.70
10057;DHT22;5068;51.286;7.518;2022-11-02T08:00:16;11.50;56.70
10057;DHT22;5068;51.286;7.518;2022-11-02T08:01:49;11.50;56.70
10057;DHT22;5068;51.286;7.518;2022-11-02T08:03:23;11.50;56.70
10057;DHT22;5068;51.286;7.518;2022-11-02T08:04:56;11.50;56.50
10057;DHT22;5068;51.286;7.518;2022-11-02T08:06:29;11.50;56.40
10057;DHT22;5068;51.286;7.518;2022-11-02T08:08:04;11.60;56.40
10057;DHT22;5068;51.286;7.518;2022-11-02T08:09:39;11.50;56.20
10057;DHT22;5068;51.286;7.518;2022-11-02T08:11:13;11.50;56.10
10057;DHT22;5068;51.286;7.518;2022-11-02T08:12:46;11.50;56.10
10057;DHT22;5068;51.286;7.518;2022-11-02T08:14:20;11.60;56.10
10057;DHT22;5068;51.286;7.518;2022-11-02T08:15:54;11.60;56.10
10057;DHT22;5068;51.286;7.518;2022-11-02T08:17:28;11.60;55.90
10057;DHT22;5068;51.286;7.518;2022-11-02T08:19:01;11.60;55.90
10057;DHT22;5068;51.286;7.518;2022-11-02T08:20:35;11.60;55.80
10057;DHT22;5068;51.286;7.518;2022-11-02T08:22:08;11.60;56.50
10057;DHT22;5068;51.286;7.518;2022-11-02T08:23:41;11.60;55.80
10057;DHT22;5068;51.286;7.518;2022-11-02T08:25:15;11.60;55.80
10057;DHT22;5068;51.286;7.518;2022-11-02T08:26:48;11.60;55.70
10057;DHT22;5068;51.286;7.518;2022-11-02T08:28:28;11.60;55.70
10057;DHT22;5068;51.286;7.518;2022-11-02T08:30:04;11.70;55.70
10057;DHT22;5068;51.286;7.518;2022-11-02T08:31:40;11.70;55.60
10057;DHT22;5068;51.286;7.518;2022-11-02T08:33:15;11.70;55.50
10057;DHT22;5068;51.286;7.518;2022-11-02T08:34:50;11.70;55.40
10057;DHT22;5068;51.286;7.518;2022-11-02T08:36:23;11.80;55.30
10057;DHT22;5068;51.286;7.518;2022-11-02T08:37:57;11.70;55.20
10057;DHT22;5068;51.286;7.518;2022-11-02T08:39:30;11.70;55.20
10057;DHT22;5068;51.286;7.518;2022-11-02T08:41:04;11.70;55.10
10057;DHT22;5068;51.286;7.518;2022-11-02T08:42:38;11.80;55.20
10057;DHT22;5068;51.286;7.518;2022-11-02T08:44:11;11.70;55.10
10057;DHT22;5068;51.286;7.518;2022-11-02T08:45:45;11.80;55.30
10057;DHT22;5068;51.286;7.518;2022-11-02T08:47:41;11.80;55.30
10057;DHT22;5068;51.286;7.518;2022-11-02T08:49:15;11.80;55.10
10057;DHT22;5068;51.286;7.518;2022-11-02T08:50:49;11.80;55.20
10057;DHT22;5068;51.286;7.518;2022-11-02T08:52:22;11.80;55.30
10057;DHT22;5068;51.286;7.518;2022-11-02T08:53:55;11.90;55.20
10057;DHT22;5068;51.286;7.518;2022-11-02T08:55:29;11.90;55.20
10057;DHT22;5068;51.286;7.518;2022-11-02T08:57:02;11.90;55.20
10057;DHT22;5068;51.286;7.518;2022-11-02T08:58:35;11.90;55.20
10057;DHT22;5068;51.286;7.518;2022-11-02T09:00:10;11.90;55.10
10057;DHT22;5068;51.286;7.518;2022-11-02T09:01:44;11.90;55.00
10057;DHT22;5068;51.286;7.518;2022-11-02T09:03:22;11.90;55.00
10057;DHT22;5068;51.286;7.518;2022-11-02T09:04:58;12.00;54.90
10057;DHT22;5068;51.286;7.518;2022-11-02T09:06:31;12.10;55.00
10057;DHT22;5068;51.286;7.518;2022-11-02T09:08:05;12.00;54.70
10057;DHT22;5068;51.286;7.518;2022-11-02T09:09:40;12.00;54.60
10057;DHT22;5068;51.286;7.518;2022-11-02T09:11:13;12.00;54.60
10057;DHT22;5068;51.286;7.518;2022-11-02T09:12:47;12.10;54.50
10057;DHT22;5068;51.286;7.518;2022-11-02T09:14:20;12.10;54.60
10057;DHT22;5068;51.286;7.518;2022-11-02T09:15:54;12.10;54.40
10057;DHT22;5068;51.286;7.518;2022-11-02T09:17:28;12.10;54.40
10057;DHT22;5068;51.286;7.518;2022-11-02T09:19:03;12.20;54.30
10057;DHT22;5068;51.286;7.518;2022-11-02T09:20:36;12.20;54.20
10057;DHT22;5068;51.286;7.518;2022-11-02T09:22:09;12.20;54.20
10057;DHT22;5068;51.286;7.518;2022-11-02T09:23:43;12.30;54.10
10057;DHT22;5068;51.286;7.518;2022-11-02T09:25:19;12.30;54.10
10057;DHT22;5068;51.286;7.518;2022-11-02T09:26:52;12.30;54.00
10057;DHT22;5068;51.286;7.518;2022-11-02T09:28:25;12.30;54.00
10057;DHT22;5068;51.286;7.518;2022-11-02T09:29:58;12.40;54.00
10057;DHT22;5068;51.286;7.518;2022-11-02T09:31:32;12.40;53.90
10057;DHT22;5068;51.286;7.518;2022-11-02T09:33:06;12.40;54.10
10057;DHT22;5068;51.286;7.518;2022-11-02T09:34:41;12.50;54.00
10057;DHT22;5068;51.286;7.518;2022-11-02T09:36:14;12.50;53.80
10057;DHT22;5068;51.286;7.518;2022-11-02T09:37:48;12.60;53.90
10057;DHT22;5068;51.286;7.518;2022-11-02T09:39:22;12.60;53.70
10057;DHT22;5068;51.286;7.518;2022-11-02T09:41:03;12.60;53.50
10057;DHT22;5068;51.286;7.518;2022-11-02T09:42:52;12.70;53.40
10057;DHT22;5068;51.286;7.518;2022-11-02T09:44:41;12.70;53.30
10057;DHT22;5068;51.286;7.518;2022-11-02T09:46:23;12.80;53.00
10057;DHT22;5068;51.286;7.518;2022-11-02T09:48:02;12.80;53.20
10057;DHT22;5068;51.286;7.518;2022-11-02T09:49:52;12.90;53.50
10057;DHT22;5068;51.286;7.518;2022-11-02T09:51:30;12.90;53.40
10057;DHT22;5068;51.286;7.518;2022-11-02T09:53:08;13.00;53.40
10057;DHT22;5068;51.286;7.518;2022-11-02T09:54:49;13.10;53.30
10057;DHT22;5068;51.286;7.518;2022-11-02T09:56:25;13.10;53.30
10057;DHT22;5068;51.286;7.518;2022-11-02T09:58:02;13.20;53.00
10057;DHT22;5068;51.286;7.518;2022-11-02T09:59:44;13.30;52.70
10057;DHT22;5068;51.286;7.518;2022-11-02T10:01:35;13.30;52.70
10057;DHT22;5068;51.286;7.518;2022-11-02T10:03:23;13.50;52.40
10057;DHT22;5068;51.286;7.518;2022-11-02T10:05:18;13.50;52.00
10057;DHT22;5068;51.286;7.518;2022-11-02T10:07:04;13.60;51.70
10057;DHT22;5068;51.286;7.518;2022-11-02T10:08:48;13.70;51.80
10057;DHT22;5068;51.286;7.518;2022-11-02T10:10:32;13.80;51.40
10057;DHT22;5068;51.286;7.518;2022-11-02T10:12:12;13.80;51.10
10057;DHT22;5068;51.286;7.518;2022-11-02T10:13:49;13.90;50.70
10057;DHT22;5068;51.286;7.518;2022-11-02T10:15:34;13.90;50.50
10057;DHT22;5068;51.286;7.518;2022-11-02T10:17:12;13.90;50.30
10057;DHT22;5068;51.286;7.518;2022-11-02T10:18:51;13.90;50.40
10057;DHT22;5068;51.286;7.518;2022-11-02T10:20:33;14.00;50.30
10057;DHT22;5068;51.286;7.518;2022-11-02T10:22:12;14.00;49.80